Time;durP1;ratioP1;P1;durP2;ratioP2;P2;SDS_P1;SDS_P2;PMS_P1;PMS_P2;Temp;Humidity;BMP_temperature;BMP_pressure;BME280_temperature;BME280_humidity;BME280_pressure;Samples;Min_cycle;Max_cycle;Signal;HPM_P1;HPM_P2
2022/12/31 00:01:37;;;;;;;0.30;0.30;;;10.10;99.90;;;;;;4166954;28;20685;-76
2022/12/31 00:03:40;;;;;;;0.20;0.20;;;10.10;99.90;;;;;;4167751;28;20240;-76
2022/12/31 00:05:42;;;;;;;1.30;0.30;;;10.10;99.90;;;;;;4151348;28;20609;-76
2022/12/31 00:07:43;;;;;;;0.50;0.50;;;10.20;99.90;;;;;;4169796;28;20252;-76
2022/12/31 00:09:45;;;;;;;0.30;0.30;;;10.20;99.90;;;;;;4150785;28;20233;-75
2022/12/31 00:11:47;;;;;;;1.53;0.50;;;10.20;99.90;;;;;;4167512;28;20233;-76
2022/12/31 00:13:51;;;;;;;2.20;0.50;;;10.20;99.90;;;;;;4151265;28;20301;-76
2022/12/31 00:15:53;;;;;;;0.47;0.37;;;10.20;99.90;;;;;;4170306;28;20236;-76
2022/12/31 00:17:55;;;;;;;1.47;0.50;;;10.20;99.90;;;;;;4151194;28;20223;-76
2022/12/31 00:19:57;;;;;;;1.10;0.60;;;10.10;99.90;;;;;;4172622;28;20587;-76
2022/12/31 00:21:58;;;;;;;0.90;0.47;;;10.10;99.90;;;;;;4167440;28;20283;-76
2022/12/31 00:24:01;;;;;;;0.67;0.60;;;10.10;99.90;;;;;;4152259;28;20260;-76
2022/12/31 00:26:05;;;;;;;0.43;0.43;;;10.20;99.90;;;;;;4168519;28;20331;-76
2022/12/31 00:28:07;;;;;;;1.07;0.40;;;10.20;99.90;;;;;;4167447;28;20213;-75
2022/12/31 00:30:13;;;;;;;0.47;0.40;;;10.10;99.90;;;;;;4170869;28;20276;-75
2022/12/31 00:32:15;;;;;;;0.90;0.50;;;10.10;99.90;;;;;;4166895;28;20648;-75
2022/12/31 00:34:17;;;;;;;0.40;0.40;;;10.20;99.90;;;;;;4153455;28;20755;-75
2022/12/31 00:36:20;;;;;;;0.67;0.50;;;10.20;99.90;;;;;;4172656;28;20724;-77
2022/12/31 00:38:22;;;;;;;0.47;0.30;;;10.20;99.90;;;;;;4174704;28;20304;-75
2022/12/31 00:40:24;;;;;;;0.50;0.50;;;10.20;99.90;;;;;;4164907;28;20225;-77
2022/12/31 00:42:26;;;;;;;1.60;0.40;;;10.20;99.90;;;;;;4175757;28;20241;-78
2022/12/31 00:44:28;;;;;;;0.63;0.30;;;10.20;99.90;;;;;;4163259;28;20201;-77
2022/12/31 00:46:31;;;;;;;0.27;0.27;;;10.20;99.90;;;;;;4155314;28;20235;-74
2022/12/31 00:48:33;;;;;;;1.80;0.30;;;10.20;99.90;;;;;;4172268;28;20691;-78
2022/12/31 00:50:35;;;;;;;1.77;0.50;;;10.20;99.90;;;;;;4173784;28;20229;-75
2022/12/31 00:52:37;;;;;;;0.40;0.40;;;10.30;99.90;;;;;;4172843;28;20220;-77
2022/12/31 00:54:42;;;;;;;0.97;0.30;;;10.20;99.90;;;;;;4153868;28;21245;-78
2022/12/31 00:56:44;;;;;;;0.30;0.30;;;10.30;99.90;;;;;;4176004;28;20240;-75
2022/12/31 00:58:46;;;;;;;0.67;0.30;;;10.30;99.90;;;;;;4178186;28;20230;-78
2022/12/31 01:00:48;;;;;;;0.63;0.37;;;10.30;99.90;;;;;;4173511;28;20208;-77
2022/12/31 01:02:51;;;;;;;1.23;0.40;;;10.30;99.90;;;;;;4174898;28;20217;-77
2022/12/31 01:04:53;;;;;;;0.30;0.30;;;10.30;99.90;;;;;;4170261;28;20711;-78
2022/12/31 01:06:55;;;;;;;0.87;0.40;;;10.30;99.90;;;;;;4168989;28;20953;-77
2022/12/31 01:08:57;;;;;;;1.13;0.40;;;10.20;99.90;;;;;;4175851;28;20267;-77
2022/12/31 01:13:19;;;;;;;0.30;0.30;;;10.20;99.90;;;;;;4165394;28;20246;-77
2022/12/31 01:15:21;;;;;;;0.80;0.40;;;10.20;99.90;;;;;;4172897;28;20282;-75
2022/12/31 01:17:23;;;;;;;0.70;0.40;;;10.10;99.90;;;;;;4167895;28;20217;-77
2022/12/31 01:19:28;;;;;;;0.30;0.30;;;10.20;99.90;;;;;;4173086;28;20253;-75
2022/12/31 01:21:31;;;;;;;0.90;0.40;;;10.20;99.90;;;;;;4172328;28;20627;-78
2022/12/31 01:23:33;;;;;;;0.60;0.37;;;10.20;99.90;;;;;;4170042;28;20208;-75
2022/12/31 01:25:36;;;;;;;3.70;0.40;;;10.20;99.90;;;;;;4169578;28;20295;-75
2022/12/31 01:27:38;;;;;;;0.30;0.23;;;10.20;99.90;;;;;;4169688;28;20232;-75
2022/12/31 01:29:39;;;;;;;0.37;0.30;;;10.20;99.90;;;;;;4169203;28;20332;-75
2022/12/31 01:31:41;;;;;;;0.60;0.40;;;10.20;99.90;;;;;;4169719;28;20242;-77
2022/12/31 01:33:44;;;;;;;0.40;0.37;;;10.20;99.90;;;;;;4168223;28;20213;-75
2022/12/31 01:35:47;;;;;;;1.27;0.33;;;10.20;99.90;;;;;;4172252;28;20215;-75
2022/12/31 01:37:49;;;;;;;1.17;0.60;;;10.20;99.90;;;;;;4171999;28;20272;-75
2022/12/31 01:39:51;;;;;;;1.00;0.50;;;10.30;99.90;;;;;;4165797;28;20328;-75
2022/12/31 01:41:53;;;;;;;1.00;0.67;;;10.30;99.90;;;;;;4168506;28;20742;-75
2022/12/31 01:43:57;;;;;;;1.50;0.60;;;10.30;99.90;;;;;;4169834;28;20301;-75
2022/12/31 01:45:59;;;;;;;0.40;0.40;;;10.30;99.90;;;;;;4172351;28;20264;-75
2022/12/31 01:48:01;;;;;;;0.40;0.40;;;10.30;99.90;;;;;;4167905;28;20217;-75
2022/12/31 01:50:10;;;;;;;1.70;0.70;;;10.40;99.90;;;;;;4171035;28;20666;-75
2022/12/31 01:52:17;;;;;;;1.40;0.50;;;10.40;99.90;;;;;;4168623;28;20308;-75
2022/12/31 01:54:22;;;;;;;1.60;0.50;;;10.40;99.90;;;;;;4166092;28;20216;-75
2022/12/31 01:56:24;;;;;;;1.33;0.73;;;10.40;99.90;;;;;;4168550;28;20203;-75
2022/12/31 01:58:29;;;;;;;0.87;0.40;;;10.40;99.90;;;;;;4167872;28;20233;-75
2022/12/31 02:00:32;;;;;;;0.30;0.30;;;10.40;99.90;;;;;;4174721;28;20679;-76
2022/12/31 02:02:34;;;;;;;0.30;0.30;;;10.50;99.90;;;;;;4172184;28;20253;-75
2022/12/31 02:04:36;;;;;;;0.33;0.33;;;10.50;99.90;;;;;;4170606;28;20279;-75
2022/12/31 02:06:42;;;;;;;0.30;0.30;;;10.50;99.90;;;;;;4173774;28;20213;-75
2022/12/31 02:08:46;;;;;;;0.20;0.20;;;10.50;99.90;;;;;;4169002;28;20308;-75
2022/12/31 02:10:48;;;;;;;0.97;0.30;;;10.60;99.90;;;;;;4169088;28;20237;-75
2022/12/31 02:12:50;;;;;;;1.70;0.30;;;10.60;99.90;;;;;;4168654;28;20912;-75
2022/12/31 02:14:54;;;;;;;0.30;0.30;;;10.60;99.90;;;;;;4171292;28;20216;-75
2022/12/31 02:17:05;;;;;;;0.27;0.27;;;10.60;99.90;;;;;;4173526;28;20215;-76
2022/12/31 02:19:26;;;;;;;1.67;0.30;;;10.60;99.90;;;;;;4172623;28;20232;-76
2022/12/31 02:21:48;;;;;;;0.33;0.27;;;10.60;99.90;;;;;;4174966;28;20235;-76
2022/12/31 02:24:12;;;;;;;0.40;0.30;;;10.60;99.90;;;;;;4173257;28;20217;-76
2022/12/31 02:26:39;;;;;;;0.47;0.30;;;10.60;99.90;;;;;;4175778;28;20735;-75
2022/12/31 02:29:07;;;;;;;1.40;0.40;;;10.60;99.90;;;;;;4164719;28;20240;-75
2022/12/31 02:31:14;;;;;;;0.30;0.27;;;10.60;99.90;;;;;;4167137;28;20213;-76
2022/12/31 02:33:22;;;;;;;0.30;0.30;;;10.60;99.90;;;;;;4175990;28;20551;-76
2022/12/31 02:35:29;;;;;;;0.40;0.30;;;10.60;99.90;;;;;;4174009;28;20219;-75
2022/12/31 02:37:33;;;;;;;0.33;0.30;;;10.60;99.90;;;;;;4170108;28;20236;-75
2022/12/31 02:39:36;;;;;;;0.37;0.30;;;10.60;99.90;;;;;;4174255;28;20233;-75
2022/12/31 02:41:49;;;;;;;0.30;0.30;;;10.60;99.90;;;;;;4171390;28;20201;-75
2022/12/31 02:43:51;;;;;;;0.10;0.10;;;10.70;99.90;;;;;;4174205;28;20215;-75
2022/12/31 02:46:02;;;;;;;0.73;0.30;;;10.70;99.90;;;;;;4170556;28;20301;-76
2022/12/31 02:48:33;;;;;;;0.27;0.27;;;10.80;99.90;;;;;;4168190;28;20237;-76
2022/12/31 02:50:41;;;;;;;0.50;0.30;;;10.80;99.90;;;;;;4174088;28;20225;-75
2022/12/31 02:52:54;;;;;;;1.23;0.30;;;10.80;99.90;;;;;;4173784;28;20220;-75
2022/12/31 02:55:03;;;;;;;0.20;0.20;;;10.80;99.90;;;;;;4167585;28;20207;-75
2022/12/31 02:57:14;;;;;;;0.33;0.30;;;10.80;99.90;;;;;;4176229;28;20212;-75
2022/12/31 03:06:32;;;;;;;0.60;0.30;;;11.00;99.90;;;;;;4173514;28;20205;-74
2022/12/31 03:09:11;;;;;;;0.97;0.30;;;11.00;99.90;;;;;;4174054;28;20229;-75
2022/12/31 03:10:57;;;;;;;0.20;0.20;;;11.00;99.90;;;;;;4177508;28;20653;-75
2022/12/31 03:12:58;;;;;;;0.30;0.20;;;11.00;99.90;;;;;;4175589;28;20690;-75
2022/12/31 03:15:00;;;;;;;0.20;0.20;;;11.00;99.90;;;;;;4154429;28;20203;-76
2022/12/31 03:17:02;;;;;;;0.30;0.30;;;11.10;99.90;;;;;;4177993;28;20256;-74
2022/12/31 03:23:49;;;;;;;0.60;0.30;;;11.10;99.90;;;;;;4177403;28;20297;-73
2022/12/31 03:25:50;;;;;;;0.70;0.20;;;11.10;99.90;;;;;;4152238;28;20607;-75
2022/12/31 03:27:51;;;;;;;0.23;0.23;;;11.10;99.90;;;;;;4169263;28;20206;-75
2022/12/31 03:29:53;;;;;;;0.30;0.30;;;11.10;99.90;;;;;;4176300;28;20602;-75
2022/12/31 03:31:55;;;;;;;0.57;0.30;;;11.10;99.90;;;;;;4172258;28;20202;-75
2022/12/31 03:33:57;;;;;;;0.30;0.30;;;11.20;99.90;;;;;;4170738;28;20238;-75
2022/12/31 03:35:58;;;;;;;0.37;0.30;;;11.10;99.90;;;;;;4172848;28;20246;-75
2022/12/31 03:38:02;;;;;;;0.50;0.23;;;11.20;99.90;;;;;;4160061;28;20209;-75
2022/12/31 03:40:06;;;;;;;0.40;0.20;;;11.20;99.90;;;;;;4159152;28;20824;-75
2022/12/31 03:42:07;;;;;;;0.30;0.30;;;11.20;99.90;;;;;;4170372;28;20707;-75
2022/12/31 03:44:09;;;;;;;0.30;0.30;;;11.20;99.90;;;;;;4156345;28;20293;-75
2022/12/31 03:46:11;;;;;;;0.20;0.20;;;11.20;99.90;;;;;;4173156;28;20280;-75
2022/12/31 03:48:13;;;;;;;0.20;0.20;;;11.20;99.90;;;;;;4153162;28;20210;-75
2022/12/31 03:50:17;;;;;;;1.60;0.20;;;11.30;99.90;;;;;;4170163;28;20222;-75
2022/12/31 03:52:19;;;;;;;0.77;0.30;;;11.30;99.90;;;;;;4168943;28;20290;-75
2022/12/31 03:54:22;;;;;;;0.93;0.60;;;11.30;99.90;;;;;;4175689;28;20293;-75
2022/12/31 03:56:24;;;;;;;0.43;0.30;;;11.30;99.90;;;;;;4172491;28;20392;-75
2022/12/31 03:58:26;;;;;;;0.77;0.40;;;11.30;99.90;;;;;;4175793;28;20228;-75
2022/12/31 04:00:28;;;;;;;0.43;0.30;;;11.40;99.90;;;;;;4175174;28;20240;-75
2022/12/31 04:02:30;;;;;;;0.80;0.30;;;11.40;99.90;;;;;;4168491;28;20201;-75
2022/12/31 04:04:34;;;;;;;1.07;0.50;;;11.40;99.90;;;;;;4166630;28;20667;-76
2022/12/31 04:06:36;;;;;;;0.97;0.40;;;11.40;99.90;;;;;;4174009;28;20206;-75
2022/12/31 04:08:38;;;;;;;0.50;0.30;;;11.50;99.90;;;;;;4159555;28;20229;-75
2022/12/31 04:10:41;;;;;;;0.50;0.40;;;11.50;99.90;;;;;;4174664;28;20226;-76
2022/12/31 04:12:44;;;;;;;0.30;0.30;;;11.50;99.90;;;;;;4175945;28;20260;-76
2022/12/31 04:14:46;;;;;;;0.30;0.30;;;11.60;99.90;;;;;;4168050;28;20214;-75
2022/12/31 04:16:48;;;;;;;1.00;0.30;;;11.60;99.90;;;;;;4175239;28;20198;-75
2022/12/31 04:18:50;;;;;;;0.37;0.30;;;11.60;99.90;;;;;;4153655;28;20332;-75
2022/12/31 04:20:52;;;;;;;0.30;0.30;;;11.70;99.90;;;;;;4170940;28;20364;-75
2022/12/31 04:22:54;;;;;;;0.67;0.43;;;11.70;99.90;;;;;;4174206;28;20218;-75
2022/12/31 04:24:56;;;;;;;0.60;0.30;;;11.70;99.90;;;;;;4155966;28;20230;-75
2022/12/31 04:27:00;;;;;;;0.20;0.20;;;11.70;99.90;;;;;;4162259;28;20273;-75
2022/12/31 04:29:04;;;;;;;1.17;0.40;;;11.80;99.90;;;;;;4170184;28;20218;-75
2022/12/31 04:31:06;;;;;;;0.23;0.23;;;11.80;99.90;;;;;;4176580;28;20225;-75
2022/12/31 04:33:10;;;;;;;0.10;0.10;;;11.90;99.90;;;;;;4153315;28;20651;-75
2022/12/31 04:35:12;;;;;;;0.70;0.30;;;11.90;99.90;;;;;;4157755;28;20302;-75
2022/12/31 04:37:15;;;;;;;0.30;0.20;;;11.90;99.90;;;;;;4157046;28;20211;-75
2022/12/31 04:39:17;;;;;;;0.33;0.30;;;11.90;99.90;;;;;;4167478;28;20613;-75
2022/12/31 04:41:19;;;;;;;0.30;0.30;;;12.00;99.90;;;;;;4173977;28;20672;-76
2022/12/31 04:43:23;;;;;;;0.20;0.20;;;12.00;99.90;;;;;;4178427;28;20293;-76
2022/12/31 04:45:25;;;;;;;0.30;0.30;;;12.00;99.90;;;;;;4170913;28;20213;-75
2022/12/31 04:47:27;;;;;;;0.40;0.30;;;12.10;99.90;;;;;;4159717;28;20215;-76
2022/12/31 04:49:29;;;;;;;0.30;0.30;;;12.10;99.90;;;;;;4171928;28;20227;-75
2022/12/31 04:51:31;;;;;;;0.20;0.20;;;12.20;99.90;;;;;;4172498;28;20267;-76
2022/12/31 04:53:33;;;;;;;1.00;0.30;;;12.20;99.90;;;;;;4152207;28;20203;-76
2022/12/31 04:55:35;;;;;;;0.60;0.50;;;12.30;99.90;;;;;;4173339;28;20736;-75
2022/12/31 04:57:37;;;;;;;2.10;0.33;;;12.30;99.90;;;;;;4160994;28;20207;-75
2022/12/31 04:59:40;;;;;;;1.17;0.40;;;12.30;99.90;;;;;;4165587;28;20239;-76
2022/12/31 05:01:42;;;;;;;0.50;0.40;;;12.30;99.90;;;;;;4169753;28;20252;-76
2022/12/31 05:03:44;;;;;;;0.30;0.30;;;12.30;99.90;;;;;;4170107;28;20688;-75
2022/12/31 05:05:48;;;;;;;0.40;0.40;;;12.40;99.90;;;;;;4171315;28;20218;-76
2022/12/31 05:07:50;;;;;;;0.30;0.30;;;12.40;99.90;;;;;;4167523;28;20217;-75
2022/12/31 05:09:52;;;;;;;0.73;0.60;;;12.50;99.90;;;;;;4156404;28;20219;-76
2022/12/31 05:11:54;;;;;;;0.57;0.27;;;12.50;99.90;;;;;;4169750;28;20274;-75
2022/12/31 05:13:56;;;;;;;0.30;0.30;;;12.50;99.90;;;;;;4171329;28;20219;-75
2022/12/31 05:15:59;;;;;;;0.30;0.30;;;12.50;99.90;;;;;;4169988;28;20228;-75
2022/12/31 05:18:01;;;;;;;0.50;0.40;;;12.60;99.90;;;;;;4168052;28;20203;-75
2022/12/31 05:20:04;;;;;;;0.30;0.30;;;12.60;99.90;;;;;;4175166;28;20252;-75
2022/12/31 05:24:25;;;;;;;1.50;0.30;;;12.60;99.90;;;;;;4173888;28;20207;-76
2022/12/31 05:26:27;;;;;;;0.30;0.30;;;12.70;99.90;;;;;;4172920;28;20265;-75
2022/12/31 05:28:29;;;;;;;0.30;0.30;;;12.70;99.90;;;;;;4171787;28;20226;-75
2022/12/31 05:30:31;;;;;;;0.60;0.40;;;12.70;99.90;;;;;;4175795;28;20307;-75
2022/12/31 05:32:35;;;;;;;0.37;0.37;;;12.70;99.90;;;;;;4154770;28;20212;-75
2022/12/31 05:34:37;;;;;;;0.30;0.30;;;12.70;99.90;;;;;;4163250;28;20203;-75
2022/12/31 05:36:39;;;;;;;0.30;0.30;;;12.80;99.90;;;;;;4173879;28;20199;-76
2022/12/31 05:38:41;;;;;;;0.30;0.30;;;12.80;99.90;;;;;;4170084;28;20277;-75
2022/12/31 05:40:43;;;;;;;0.30;0.30;;;12.80;99.90;;;;;;4172495;28;20309;-75
2022/12/31 05:42:45;;;;;;;1.80;0.30;;;12.80;99.90;;;;;;4166614;28;20208;-76
2022/12/31 05:44:47;;;;;;;0.67;0.43;;;12.90;99.90;;;;;;4180955;28;20202;-75
2022/12/31 05:46:49;;;;;;;0.47;0.30;;;12.90;99.90;;;;;;4179821;28;20245;-76
2022/12/31 05:48:52;;;;;;;0.50;0.40;;;12.90;99.90;;;;;;4178247;28;20227;-75
2022/12/31 05:50:54;;;;;;;0.67;0.47;;;12.90;99.90;;;;;;4174943;28;20713;-75
2022/12/31 05:52:56;;;;;;;0.87;0.30;;;12.90;99.90;;;;;;4169647;28;20294;-75
2022/12/31 05:54:58;;;;;;;2.23;0.33;;;12.90;99.90;;;;;;4172153;28;20281;-75
2022/12/31 05:57:00;;;;;;;0.37;0.30;;;13.00;99.90;;;;;;4157394;28;20673;-76
2022/12/31 05:59:02;;;;;;;0.50;0.40;;;13.00;99.90;;;;;;4176995;28;20248;-75
2022/12/31 06:01:04;;;;;;;0.20;0.20;;;13.00;99.90;;;;;;4174327;28;20223;-75
2022/12/31 06:03:06;;;;;;;0.20;0.20;;;13.00;99.90;;;;;;4173742;28;20294;-75
2022/12/31 06:05:11;;;;;;;0.40;0.30;;;13.00;99.90;;;;;;4172452;28;20206;-76
2022/12/31 06:07:13;;;;;;;0.10;0.10;;;13.00;99.90;;;;;;4169758;28;20229;-75
2022/12/31 06:09:15;;;;;;;0.30;0.20;;;13.00;99.90;;;;;;4168007;28;20262;-75
2022/12/31 06:11:17;;;;;;;3.93;0.30;;;13.10;99.90;;;;;;4167630;28;20219;-75
2022/12/31 06:13:19;;;;;;;1.13;0.30;;;13.00;99.90;;;;;;4156074;28;20207;-75
2022/12/31 06:15:23;;;;;;;0.10;0.10;;;13.10;99.90;;;;;;4176659;28;20211;-75
2022/12/31 06:17:25;;;;;;;1.07;0.40;;;13.10;99.90;;;;;;4170553;28;20206;-75
2022/12/31 06:19:27;;;;;;;0.20;0.20;;;13.10;99.90;;;;;;4177233;28;22172;-75
2022/12/31 06:21:30;;;;;;;0.30;0.30;;;13.10;99.90;;;;;;4162153;28;20211;-75
2022/12/31 06:23:32;;;;;;;1.67;0.73;;;13.10;99.90;;;;;;4176798;28;20290;-75
2022/12/31 06:25:39;;;;;;;1.73;0.70;;;13.20;99.90;;;;;;4174108;28;20210;-75
2022/12/31 06:27:41;;;;;;;0.30;0.30;;;13.20;99.90;;;;;;4171109;28;20222;-75
2022/12/31 06:29:44;;;;;;;0.30;0.30;;;13.20;99.90;;;;;;4172090;28;20250;-75
2022/12/31 06:31:46;;;;;;;0.23;0.23;;;13.30;99.90;;;;;;4170411;28;20313;-75
2022/12/31 06:33:48;;;;;;;0.97;0.30;;;13.30;99.90;;;;;;4173822;28;20235;-75
2022/12/31 06:35:55;;;;;;;1.50;0.30;;;13.30;99.90;;;;;;4177070;28;20266;-75
2022/12/31 06:37:58;;;;;;;0.30;0.30;;;13.40;99.90;;;;;;4173313;28;20244;-75
2022/12/31 06:40:01;;;;;;;0.70;0.30;;;13.40;99.90;;;;;;4171852;28;20262;-75
2022/12/31 06:42:02;;;;;;;0.30;0.30;;;13.40;99.90;;;;;;4175991;28;20232;-76
2022/12/31 06:44:05;;;;;;;1.10;0.40;;;13.40;99.90;;;;;;4156680;28;20259;-75
2022/12/31 06:46:09;;;;;;;1.80;0.30;;;13.50;99.90;;;;;;4171858;28;20231;-76
2022/12/31 06:48:11;;;;;;;1.00;0.30;;;13.50;99.90;;;;;;4171816;28;20265;-76
2022/12/31 06:50:12;;;;;;;2.23;0.30;;;13.60;99.90;;;;;;4176401;28;20195;-75
2022/12/31 06:52:14;;;;;;;0.37;0.37;;;13.60;99.90;;;;;;4162073;28;20325;-75
2022/12/31 06:54:18;;;;;;;0.40;0.40;;;13.60;99.90;;;;;;4179871;28;20234;-75
2022/12/31 06:56:23;;;;;;;0.33;0.33;;;13.70;99.90;;;;;;4168612;28;20240;-75
2022/12/31 06:58:26;;;;;;;0.80;0.57;;;13.70;99.90;;;;;;4159476;28;21047;-75
2022/12/31 07:00:29;;;;;;;1.10;0.60;;;13.80;99.90;;;;;;4175343;28;20234;-75
2022/12/31 07:02:48;;;;;;;4.33;1.93;;;13.80;99.90;;;;;;4172166;28;20232;-75
2022/12/31 07:05:12;;;;;;;0.40;0.40;;;13.80;99.90;;;;;;4169331;28;20235;-76
2022/12/31 07:07:20;;;;;;;1.37;0.33;;;13.90;99.90;;;;;;4170710;28;20570;-75
2022/12/31 07:09:29;;;;;;;0.20;0.20;;;13.90;99.90;;;;;;4154219;28;20232;-75
2022/12/31 07:11:39;;;;;;;0.70;0.37;;;13.90;99.90;;;;;;4168595;28;20562;-75
2022/12/31 07:13:57;;;;;;;0.40;0.30;;;14.00;99.90;;;;;;4156299;28;20632;-75
2022/12/31 07:16:20;;;;;;;1.03;0.30;;;14.00;99.90;;;;;;4157924;28;20227;-75
2022/12/31 07:18:31;;;;;;;0.43;0.40;;;14.00;99.90;;;;;;4168212;28;20224;-75
2022/12/31 07:20:34;;;;;;;0.30;0.30;;;14.00;99.90;;;;;;4159752;28;20205;-75
2022/12/31 07:22:36;;;;;;;0.47;0.30;;;14.20;99.90;;;;;;4152456;28;20300;-76
2022/12/31 07:24:40;;;;;;;1.53;0.40;;;14.30;99.90;;;;;;4173780;28;20205;-75
2022/12/31 07:27:06;;;;;;;1.00;0.40;;;14.30;99.90;;;;;;4165749;28;20206;-75
2022/12/31 07:29:17;;;;;;;1.63;0.40;;;14.40;99.90;;;;;;4160070;28;20248;-75
2022/12/31 07:31:31;;;;;;;1.17;0.80;;;14.40;99.90;;;;;;4175342;28;20565;-76
2022/12/31 07:33:48;;;;;;;1.20;0.30;;;14.40;99.90;;;;;;4173008;28;20220;-75
2022/12/31 07:35:57;;;;;;;0.30;0.30;;;14.50;99.90;;;;;;4173833;28;20243;-75
2022/12/31 07:38:07;;;;;;;0.73;0.40;;;14.50;99.90;;;;;;4169694;28;20633;-75
2022/12/31 07:40:25;;;;;;;0.30;0.30;;;14.50;99.90;;;;;;4171232;28;20287;-75
2022/12/31 07:42:36;;;;;;;1.03;0.47;;;14.50;99.90;;;;;;4174889;28;20654;-75
2022/12/31 07:44:48;;;;;;;0.50;0.30;;;14.50;99.90;;;;;;4174447;28;21021;-75
2022/12/31 07:46:55;;;;;;;0.57;0.30;;;14.50;99.90;;;;;;4169507;28;20663;-75
2022/12/31 07:48:58;;;;;;;0.30;0.30;;;14.60;99.90;;;;;;4169680;28;20651;-75
2022/12/31 07:51:02;;;;;;;0.80;0.43;;;14.60;99.90;;;;;;4173539;28;20726;-75
2022/12/31 07:53:04;;;;;;;0.37;0.37;;;14.60;99.90;;;;;;4173534;28;20281;-75
2022/12/31 07:55:07;;;;;;;0.60;0.30;;;14.60;99.90;;;;;;4171971;28;20201;-75
2022/12/31 07:57:12;;;;;;;2.27;0.70;;;14.60;99.90;;;;;;4174163;28;20208;-75
2022/12/31 07:59:32;;;;;;;0.93;0.50;;;14.60;99.90;;;;;;4167155;28;20241;-75
2022/12/31 08:01:43;;;;;;;0.57;0.40;;;14.60;99.90;;;;;;4155637;28;20206;-76
2022/12/31 08:03:55;;;;;;;0.90;0.57;;;14.60;99.90;;;;;;4168614;28;20208;-76
2022/12/31 08:06:08;;;;;;;1.00;0.50;;;14.70;99.90;;;;;;4173081;28;20624;-75
2022/12/31 08:08:18;;;;;;;0.57;0.50;;;14.60;99.90;;;;;;4175756;28;20255;-75
2022/12/31 08:10:27;;;;;;;1.00;0.53;;;14.70;99.90;;;;;;4175769;28;20209;-75
2022/12/31 08:12:34;;;;;;;3.60;0.53;;;14.70;99.90;;;;;;4175947;28;20233;-76
2022/12/31 08:14:43;;;;;;;1.63;0.67;;;14.60;99.90;;;;;;4171198;28;20212;-75
2022/12/31 08:16:45;;;;;;;0.93;0.60;;;14.60;99.90;;;;;;4158508;28;20215;-75
2022/12/31 08:18:48;;;;;;;2.30;0.90;;;14.70;99.90;;;;;;4171558;28;20266;-75
2022/12/31 08:20:59;;;;;;;0.50;0.50;;;14.70;99.90;;;;;;4151278;28;20236;-75
2022/12/31 08:23:21;;;;;;;1.30;0.70;;;14.70;99.90;;;;;;4169079;28;20300;-75
2022/12/31 08:25:31;;;;;;;1.93;0.53;;;14.80;99.90;;;;;;4169986;28;20240;-75
2022/12/31 08:27:45;;;;;;;4.37;0.50;;;14.80;99.90;;;;;;4152434;28;20218;-75
2022/12/31 08:29:58;;;;;;;1.43;0.47;;;14.80;99.90;;;;;;4169525;28;20234;-75
2022/12/31 08:32:08;;;;;;;1.07;0.70;;;14.80;99.90;;;;;;4168401;28;20316;-75
2022/12/31 08:34:21;;;;;;;0.77;0.67;;;14.80;99.90;;;;;;4168869;28;20288;-75
2022/12/31 08:36:31;;;;;;;0.60;0.40;;;14.80;99.90;;;;;;4169724;28;20204;-75
2022/12/31 08:38:43;;;;;;;1.23;0.50;;;14.80;99.90;;;;;;4167051;28;20989;-75
2022/12/31 08:40:51;;;;;;;1.03;0.50;;;14.80;99.90;;;;;;4170990;28;20202;-76
2022/12/31 08:43:11;;;;;;;0.90;0.50;;;14.80;99.90;;;;;;4166256;28;20208;-75
2022/12/31 08:45:19;;;;;;;1.60;0.60;;;14.90;99.90;;;;;;4149332;28;20242;-75
2022/12/31 08:47:31;;;;;;;1.00;0.63;;;14.90;99.90;;;;;;4149146;28;20231;-75
2022/12/31 08:49:35;;;;;;;0.77;0.50;;;14.90;99.90;;;;;;4168748;28;20233;-76
2022/12/31 08:51:37;;;;;;;3.80;0.60;;;14.90;99.90;;;;;;4169316;28;20265;-76
2022/12/31 08:53:40;;;;;;;0.67;0.50;;;14.90;99.90;;;;;;4166252;28;20233;-75
2022/12/31 08:55:43;;;;;;;1.03;0.70;;;15.00;99.90;;;;;;4158264;28;20234;-75
2022/12/31 08:57:55;;;;;;;1.57;0.60;;;15.00;99.90;;;;;;4173240;28;20202;-75
2022/12/31 09:00:07;;;;;;;2.10;1.33;;;15.00;99.90;;;;;;4164899;28;20772;-75
2022/12/31 09:02:35;;;;;;;0.60;0.60;;;15.00;99.90;;;;;;4172744;28;20199;-75
2022/12/31 09:04:48;;;;;;;1.80;0.60;;;15.00;99.90;;;;;;4172466;28;20741;-76
2022/12/31 09:06:56;;;;;;;0.90;0.50;;;15.00;99.90;;;;;;4160517;28;20238;-75
2022/12/31 09:09:06;;;;;;;0.90;0.53;;;15.10;99.90;;;;;;4159373;28;20222;-75
2022/12/31 09:11:13;;;;;;;1.07;0.57;;;15.10;99.90;;;;;;4151876;28;20610;-75
2022/12/31 09:13:25;;;;;;;1.70;0.53;;;15.10;99.90;;;;;;4169901;28;20229;-75
2022/12/31 09:15:33;;;;;;;1.30;0.60;;;15.20;99.90;;;;;;4170818;28;20655;-75
2022/12/31 09:17:43;;;;;;;0.93;0.50;;;15.20;99.90;;;;;;4168299;28;20704;-75
2022/12/31 09:19:46;;;;;;;1.17;0.60;;;15.20;99.90;;;;;;4171939;28;20226;-76
2022/12/31 09:21:48;;;;;;;0.60;0.50;;;15.20;99.90;;;;;;4168631;28;20206;-76
2022/12/31 09:23:50;;;;;;;1.50;0.67;;;15.20;99.90;;;;;;4169232;28;20230;-75
2022/12/31 09:25:59;;;;;;;1.43;0.50;;;15.30;99.90;;;;;;4153271;28;20776;-75
2022/12/31 09:28:14;;;;;;;1.03;0.43;;;15.40;99.90;;;;;;4160626;28;20641;-75
2022/12/31 09:30:17;;;;;;;1.00;0.30;;;15.50;99.90;;;;;;4168059;28;20206;-75
2022/12/31 09:32:28;;;;;;;1.80;0.60;;;15.50;99.90;;;;;;4171412;28;20251;-75
2022/12/31 09:34:37;;;;;;;0.73;0.50;;;15.50;99.90;;;;;;4169438;28;20210;-75
2022/12/31 09:36:46;;;;;;;2.40;0.40;;;15.50;99.90;;;;;;4170086;28;20739;-76
2022/12/31 09:38:52;;;;;;;0.70;0.60;;;15.50;99.90;;;;;;4167796;28;20301;-75
2022/12/31 09:41:13;;;;;;;1.53;0.70;;;15.70;99.90;;;;;;4169908;28;20294;-76
2022/12/31 09:43:46;;;;;;;2.00;0.60;;;15.70;99.90;;;;;;4166442;28;20202;-75
2022/12/31 09:46:07;;;;;;;2.70;0.80;;;15.80;99.90;;;;;;4161594;28;20239;-76
2022/12/31 09:48:47;;;;;;;1.13;0.63;;;15.90;99.90;;;;;;4167858;28;20290;-76
2022/12/31 09:51:07;;;;;;;0.70;0.67;;;16.00;99.90;;;;;;4169521;28;20203;-76
2022/12/31 09:53:47;;;;;;;1.60;0.47;;;16.00;99.90;;;;;;4167822;28;20277;-76
2022/12/31 09:55:52;;;;;;;1.13;0.50;;;16.00;99.90;;;;;;4150926;28;20223;-75
2022/12/31 09:58:07;;;;;;;0.60;0.50;;;16.00;99.90;;;;;;4170688;28;20203;-76
2022/12/31 10:00:15;;;;;;;0.77;0.40;;;16.10;99.90;;;;;;4168601;28;20243;-75
2022/12/31 10:02:27;;;;;;;2.20;0.47;;;16.10;99.90;;;;;;4164183;28;20232;-76
2022/12/31 10:04:42;;;;;;;0.90;0.40;;;16.10;99.90;;;;;;4167153;28;20655;-75
2022/12/31 10:06:54;;;;;;;2.57;0.50;;;16.10;99.90;;;;;;4167017;28;20241;-76
2022/12/31 10:09:18;;;;;;;0.93;0.47;;;16.20;99.90;;;;;;4168245;28;20248;-75
2022/12/31 10:11:27;;;;;;;1.03;0.50;;;16.20;99.90;;;;;;4168872;28;20621;-76
2022/12/31 10:13:55;;;;;;;1.17;0.50;;;16.30;99.90;;;;;;4167258;28;20234;-76
2022/12/31 10:16:20;;;;;;;2.53;0.50;;;16.30;99.90;;;;;;4161232;28;20203;-76
2022/12/31 10:18:37;;;;;;;1.27;0.53;;;16.40;99.90;;;;;;4169386;28;20305;-76
2022/12/31 10:21:02;;;;;;;2.47;0.50;;;16.40;99.90;;;;;;4166079;28;20203;-76
2022/12/31 10:23:41;;;;;;;1.73;0.60;;;16.50;99.90;;;;;;4166440;28;20203;-75
2022/12/31 10:26:15;;;;;;;1.13;0.40;;;16.50;99.90;;;;;;4134520;28;20714;-76
2022/12/31 10:28:29;;;;;;;2.43;0.60;;;16.60;99.90;;;;;;4136629;28;20223;-76
2022/12/31 10:30:34;;;;;;;1.37;0.50;;;16.70;99.90;;;;;;4169925;28;20443;-75
2022/12/31 10:32:43;;;;;;;1.30;0.50;;;16.70;99.90;;;;;;4170774;28;20250;-76
2022/12/31 10:34:59;;;;;;;1.30;0.70;;;16.80;99.90;;;;;;4170487;28;20246;-75
2022/12/31 10:37:10;;;;;;;0.70;0.50;;;16.80;99.90;;;;;;4152055;28;20740;-75
2022/12/31 10:39:23;;;;;;;2.60;0.60;;;16.90;99.90;;;;;;4168842;28;20260;-75
2022/12/31 10:42:12;;;;;;;0.87;0.50;;;17.00;99.90;;;;;;4171146;28;20210;-76
2022/12/31 10:44:58;;;;;;;0.70;0.50;;;17.00;99.90;;;;;;4153385;28;20304;-76
2022/12/31 10:47:33;;;;;;;0.60;0.50;;;17.20;99.90;;;;;;4169587;28;20751;-76
2022/12/31 10:50:16;;;;;;;2.17;0.60;;;17.20;99.90;;;;;;4167455;28;20305;-76
2022/12/31 10:52:55;;;;;;;1.07;0.60;;;17.30;99.90;;;;;;4171262;28;20699;-76
2022/12/31 10:55:34;;;;;;;3.33;1.30;;;17.30;99.90;;;;;;4170495;28;20224;-76
2022/12/31 10:58:20;;;;;;;3.20;1.00;;;17.40;99.90;;;;;;4171856;28;20209;-76
2022/12/31 11:00:23;;;;;;;3.43;0.63;;;17.50;99.90;;;;;;4172201;28;21294;-77
2022/12/31 11:02:57;;;;;;;1.00;0.50;;;17.50;99.90;;;;;;4172148;28;20202;-75
2022/12/31 11:05:29;;;;;;;1.47;0.77;;;17.50;99.90;;;;;;4150293;28;20297;-80
2022/12/31 11:07:55;;;;;;;2.00;0.70;;;17.50;99.90;;;;;;4171206;28;20207;-79
2022/12/31 11:10:34;;;;;;;2.63;0.90;;;17.50;99.90;;;;;;4175142;28;20226;-77
2022/12/31 11:13:03;;;;;;;3.87;0.73;;;17.50;99.90;;;;;;4134643;28;20269;-76
2022/12/31 11:15:31;;;;;;;1.50;0.63;;;17.50;99.90;;;;;;4171652;28;20296;-77
2022/12/31 11:17:46;;;;;;;1.00;0.67;;;17.50;99.90;;;;;;4168144;28;20756;-82
2022/12/31 11:19:58;;;;;;;1.30;0.50;;;17.50;99.90;;;;;;4171892;28;20210;-83
2022/12/31 11:22:26;;;;;;;2.53;0.60;;;17.50;99.90;;;;;;4174587;28;20212;-83
2022/12/31 11:24:40;;;;;;;2.03;0.57;;;17.40;99.90;;;;;;4175183;28;20219;-81